Terminal Aerodrome Forecast
Issued by NWS Portland, OR

Home | Current Version | Previous Version | Text Only | Print | Product List | Glossary On
Versions: 1 2 3 4 5 6 7 8 9 10 11 12 13 14 15 16 17 18 19 20 21 22 23 24 25 26 27 28 29 30 31 32 33 34
000
FTUS46 KPQR 191739
TAFAST
TAF
KAST 191739Z 1918/2018 25012KT P6SM FEW020 SCT045 BKN070
     FM200300 21004KT P6SM SCT015 OVC050
     FM200700 17004KT 6SM -RA OVC019
     FM201400 24009KT 4SM -SHRA BR OVC003
     FM201700 24007KT 2SM -SHRA BR BKN007=

USA.gov is the U.S. government's official web portal to all federal, state and local government web resources and services.